Time;durP1;ratioP1;P1;durP2;ratioP2;P2;SDS_P1;SDS_P2;PMS_P1;PMS_P2;Temp;Humidity;BMP_temperature;BMP_pressure;BME280_temperature;BME280_humidity;BME280_pressure;Samples;Min_cycle;Max_cycle;Signal;HPM_P1;HPM_P2
2022/09/13 00:01:05;;;;;;;38.47;18.95;;;;;;;;;;4923336;28;20038;-89
2022/09/13 00:03:31;;;;;;;43.08;20.45;;;;;;;;;;4930284;29;20111;-89
2022/09/13 00:05:58;;;;;;;42.63;19.92;;;;;;;;;;4935218;29;20506;-89
2022/09/13 00:08:24;;;;;;;40.53;19.80;;;;;;;;;;4933579;29;20034;-89
2022/09/13 00:10:50;;;;;;;42.58;19.48;;;;;;;;;;4932389;28;20032;-89
2022/09/13 00:13:17;;;;;;;41.28;19.65;;;;;;;;;;4918899;29;20474;-89
2022/09/13 00:15:47;;;;;;;35.05;19.00;;;;;;;;;;4929462;28;20095;-89
2022/09/13 00:18:14;;;;;;;45.38;20.38;;;;;;;;;;4947783;28;20042;-90
2022/09/13 00:20:40;;;;;;;45.13;19.95;;;;;;;;;;4948223;28;20074;-89
2022/09/13 00:23:06;;;;;;;37.97;19.25;;;;;;;;;;4920371;29;20042;-89
2022/09/13 00:25:32;;;;;;;43.22;20.50;;;;;;;;;;4938350;28;20046;-89
2022/09/13 00:27:58;;;;;;;44.75;19.40;;;;;;;;;;4947130;28;20471;-89
2022/09/13 00:30:24;;;;;;;40.30;20.38;;;;;;;;;;4918353;29;20039;-89
2022/09/13 00:32:50;;;;;;;44.10;21.40;;;;;;;;;;4912605;29;20590;-89
2022/09/13 00:35:16;;;;;;;49.53;21.52;;;;;;;;;;4915173;29;20034;-89
2022/09/13 00:37:43;;;;;;;43.85;19.10;;;;;;;;;;4947003;28;20355;-88
2022/09/13 00:40:10;;;;;;;34.35;16.13;;;;;;;;;;4918711;29;20038;-89
2022/09/13 00:42:36;;;;;;;37.67;16.85;;;;;;;;;;4933193;29;20146;-88
2022/09/13 00:45:11;;;;;;;45.25;17.30;;;;;;;;;;4936495;28;20035;-89
2022/09/13 00:47:46;;;;;;;43.30;18.55;;;;;;;;;;4922641;28;20134;-89
2022/09/13 00:50:29;;;;;;;46.40;19.33;;;;;;;;;;4912322;29;20036;-89
2022/09/13 00:52:57;;;;;;;43.20;18.73;;;;;;;;;;4909894;29;20036;-88
2022/09/13 00:55:29;;;;;;;38.08;17.77;;;;;;;;;;4909106;29;20082;-89
2022/09/13 00:57:58;;;;;;;40.97;16.42;;;;;;;;;;4909458;29;20118;-89
2022/09/13 01:00:24;;;;;;;40.42;17.75;;;;;;;;;;4908691;29;20044;-89
2022/09/13 01:02:54;;;;;;;45.63;20.38;;;;;;;;;;4896221;29;20056;-90
2022/09/13 01:05:23;;;;;;;48.33;19.98;;;;;;;;;;4908502;29;20032;-90
2022/09/13 01:07:50;;;;;;;53.20;22.73;;;;;;;;;;4906225;29;20846;-90
2022/09/13 01:10:16;;;;;;;51.65;21.80;;;;;;;;;;4910449;29;20029;-90
2022/09/13 01:12:49;;;;;;;59.00;25.35;;;;;;;;;;4909256;29;20377;-89
2022/09/13 01:15:15;;;;;;;56.03;22.45;;;;;;;;;;4906671;29;20555;-90
2022/09/13 01:17:42;;;;;;;65.57;24.70;;;;;;;;;;4897404;29;20040;-89
2022/09/13 01:20:10;;;;;;;61.83;23.48;;;;;;;;;;4913283;29;20119;-89
2022/09/13 01:22:39;;;;;;;48.45;19.52;;;;;;;;;;4909010;29;20194;-90
2022/09/13 01:25:05;;;;;;;50.63;20.67;;;;;;;;;;4906873;29;20473;-90
2022/09/13 01:27:47;;;;;;;43.13;19.25;;;;;;;;;;4914292;29;20038;-90
2022/09/13 01:30:18;;;;;;;50.97;19.42;;;;;;;;;;4918364;29;20099;-90
2022/09/13 01:32:49;;;;;;;43.83;17.83;;;;;;;;;;4908444;29;20528;-90
2022/09/13 01:35:38;;;;;;;47.08;18.73;;;;;;;;;;4922636;29;20039;-90
2022/09/13 01:38:12;;;;;;;46.33;18.05;;;;;;;;;;4904966;29;20036;-90
2022/09/13 01:40:47;;;;;;;35.67;15.65;;;;;;;;;;4910756;29;20551;-89
2022/09/13 01:43:32;;;;;;;36.95;16.90;;;;;;;;;;4911449;29;20024;-90
2022/09/13 01:46:17;;;;;;;37.22;15.88;;;;;;;;;;4911447;29;20021;-90
2022/09/13 01:48:54;;;;;;;29.43;13.00;;;;;;;;;;4925707;28;20096;-89
2022/09/13 01:51:27;;;;;;;29.58;13.52;;;;;;;;;;4923467;29;20031;-88
2022/09/13 01:53:59;;;;;;;27.98;13.70;;;;;;;;;;4895650;29;22040;-88
2022/09/13 01:56:25;;;;;;;29.20;13.55;;;;;;;;;;4916190;29;20036;-88
2022/09/13 01:58:54;;;;;;;29.42;13.35;;;;;;;;;;4925984;29;20063;-89
2022/09/13 02:01:31;;;;;;;31.55;14.50;;;;;;;;;;4924646;29;20418;-89
2022/09/13 02:04:03;;;;;;;28.50;13.50;;;;;;;;;;4922732;29;20115;-89
2022/09/13 02:06:35;;;;;;;37.83;14.60;;;;;;;;;;4922626;29;20028;-89
2022/09/13 02:09:02;;;;;;;27.08;14.43;;;;;;;;;;4900431;29;20471;-89
2022/09/13 02:11:29;;;;;;;34.97;14.30;;;;;;;;;;4907213;29;20527;-89
2022/09/13 02:14:11;;;;;;;26.98;14.00;;;;;;;;;;4912533;29;20167;-89
2022/09/13 02:16:37;;;;;;;30.42;13.07;;;;;;;;;;4908079;29;20024;-90
2022/09/13 02:19:06;;;;;;;29.38;14.27;;;;;;;;;;4924213;29;20523;-89
2022/09/13 02:21:37;;;;;;;34.83;13.80;;;;;;;;;;4925722;29;20032;-90
2022/09/13 02:24:06;;;;;;;32.38;14.63;;;;;;;;;;4924285;29;20080;-89
2022/09/13 02:26:34;;;;;;;26.13;14.25;;;;;;;;;;4910378;29;20036;-89
2022/09/13 02:29:01;;;;;;;31.60;14.77;;;;;;;;;;4901650;29;20488;-89
2022/09/13 02:31:40;;;;;;;28.00;14.05;;;;;;;;;;4924236;29;20032;-89
2022/09/13 02:34:10;;;;;;;28.50;13.45;;;;;;;;;;4920672;29;20063;-90
2022/09/13 02:36:39;;;;;;;27.50;13.90;;;;;;;;;;4911084;29;20067;-89
2022/09/13 02:39:12;;;;;;;27.92;13.77;;;;;;;;;;4924996;29;20036;-89
2022/09/13 02:41:48;;;;;;;31.60;13.77;;;;;;;;;;4921725;29;20036;-90
2022/09/13 02:44:25;;;;;;;27.90;13.77;;;;;;;;;;4921766;29;20067;-88
2022/09/13 02:47:08;;;;;;;29.60;14.65;;;;;;;;;;4925104;28;20505;-88
2022/09/13 02:49:50;;;;;;;30.30;13.73;;;;;;;;;;4906927;29;20039;-88
2022/09/13 02:52:32;;;;;;;36.53;14.88;;;;;;;;;;4925414;29;20115;-88
2022/09/13 02:55:21;;;;;;;33.60;15.15;;;;;;;;;;4909090;29;20524;-88
2022/09/13 02:57:50;;;;;;;35.90;15.30;;;;;;;;;;4906031;29;20144;-88
2022/09/13 03:00:17;;;;;;;40.25;17.25;;;;;;;;;;4928039;29;20034;-89
2022/09/13 03:02:43;;;;;;;38.17;16.38;;;;;;;;;;4910578;29;20094;-89
2022/09/13 03:05:09;;;;;;;37.97;15.48;;;;;;;;;;4912713;29;20111;-88
2022/09/13 03:07:35;;;;;;;35.72;14.80;;;;;;;;;;4892981;29;20146;-89
2022/09/13 03:10:12;;;;;;;28.08;12.40;;;;;;;;;;4897377;29;20123;-89
2022/09/13 03:12:55;;;;;;;18.48;9.02;;;;;;;;;;4913411;29;20028;-88
2022/09/13 03:15:26;;;;;;;16.25;7.22;;;;;;;;;;4914249;29;20031;-89
2022/09/13 03:18:11;;;;;;;12.10;5.90;;;;;;;;;;4913629;29;20897;-89
2022/09/13 03:20:49;;;;;;;14.45;4.95;;;;;;;;;;4909598;29;20106;-89
2022/09/13 03:23:35;;;;;;;10.57;4.25;;;;;;;;;;4931606;29;20039;-89
2022/09/13 03:26:01;;;;;;;6.20;3.75;;;;;;;;;;4913495;29;20131;-89
2022/09/13 03:28:36;;;;;;;8.05;3.15;;;;;;;;;;4913195;29;20118;-89
2022/09/13 03:31:05;;;;;;;9.85;3.20;;;;;;;;;;4932809;29;20032;-89
2022/09/13 03:33:36;;;;;;;8.15;3.10;;;;;;;;;;4912594;29;20050;-90
2022/09/13 03:36:07;;;;;;;6.55;2.55;;;;;;;;;;4914466;29;20036;-89
2022/09/13 03:38:37;;;;;;;10.02;2.65;;;;;;;;;;4930690;29;20039;-89
2022/09/13 03:41:15;;;;;;;8.80;2.58;;;;;;;;;;4916589;29;20031;-89
2022/09/13 03:43:56;;;;;;;6.10;2.60;;;;;;;;;;4928562;29;20039;-89
2022/09/13 03:46:26;;;;;;;7.32;2.50;;;;;;;;;;4914373;29;20028;-89
2022/09/13 03:48:53;;;;;;;8.60;2.90;;;;;;;;;;4943681;28;20035;-89
2022/09/13 03:51:19;;;;;;;5.68;2.80;;;;;;;;;;4934206;29;20031;-89
2022/09/13 03:53:47;;;;;;;11.43;2.67;;;;;;;;;;4917824;29;20039;-89
2022/09/13 03:56:14;;;;;;;5.80;2.60;;;;;;;;;;4926705;28;20103;-89
2022/09/13 03:58:41;;;;;;;9.50;2.88;;;;;;;;;;4944636;28;21132;-89
2022/09/13 04:01:09;;;;;;;8.70;3.40;;;;;;;;;;4912895;29;20035;-89
2022/09/13 04:03:35;;;;;;;11.80;2.92;;;;;;;;;;4934919;29;20035;-89
2022/09/13 04:06:01;;;;;;;16.65;3.10;;;;;;;;;;4920416;28;20044;-89
2022/09/13 04:08:27;;;;;;;6.38;2.92;;;;;;;;;;4916624;29;20034;-89
2022/09/13 04:10:53;;;;;;;6.72;2.78;;;;;;;;;;4915767;29;20035;-89
2022/09/13 04:13:21;;;;;;;9.48;2.97;;;;;;;;;;4922680;29;20074;-89
2022/09/13 04:15:47;;;;;;;9.95;2.70;;;;;;;;;;4914883;28;20035;-88
2022/09/13 04:18:13;;;;;;;17.67;2.65;;;;;;;;;;4933842;29;20118;-88
2022/09/13 04:20:39;;;;;;;4.93;1.80;;;;;;;;;;4915446;29;20150;-89
2022/09/13 04:23:06;;;;;;;11.38;1.60;;;;;;;;;;4915228;29;20534;-89
2022/09/13 04:25:32;;;;;;;8.20;1.60;;;;;;;;;;4948781;28;20042;-88
2022/09/13 04:28:01;;;;;;;5.75;1.92;;;;;;;;;;4931320;28;20058;-89
2022/09/13 04:30:28;;;;;;;1.90;1.50;;;;;;;;;;4926727;29;20502;-90
2022/09/13 04:32:57;;;;;;;8.85;2.17;;;;;;;;;;4913448;28;20032;-89
2022/09/13 04:35:23;;;;;;;7.10;1.65;;;;;;;;;;4946191;28;20030;-89
2022/09/13 04:37:49;;;;;;;7.10;1.80;;;;;;;;;;4917796;29;20210;-89
2022/09/13 04:40:15;;;;;;;6.75;1.80;;;;;;;;;;4931496;29;20134;-89
2022/09/13 04:42:43;;;;;;;23.00;10.15;;;;;;;;;;4929496;28;20125;-89
2022/09/13 04:45:09;;;;;;;13.15;6.63;;;;;;;;;;4948404;28;20045;-89
2022/09/13 04:47:35;;;;;;;5.30;3.00;;;;;;;;;;4904995;28;20056;-88
2022/09/13 04:50:01;;;;;;;12.23;3.50;;;;;;;;;;4895150;29;20396;-88
2022/09/13 04:52:27;;;;;;;11.32;3.30;;;;;;;;;;4895071;29;20032;-88
2022/09/13 04:54:53;;;;;;;11.50;2.88;;;;;;;;;;4879437;29;20043;-89
2022/09/13 04:57:19;;;;;;;17.73;3.45;;;;;;;;;;4890357;29;20047;-89
2022/09/13 04:59:45;;;;;;;13.02;3.15;;;;;;;;;;4908117;29;20484;-89
2022/09/13 05:02:11;;;;;;;7.13;3.17;;;;;;;;;;4899797;29;20043;-90
2022/09/13 05:04:37;;;;;;;7.85;3.08;;;;;;;;;;4889549;29;20044;-89
2022/09/13 05:07:03;;;;;;;9.98;4.00;;;;;;;;;;4894196;29;20039;-89
2022/09/13 05:09:29;;;;;;;11.73;3.55;;;;;;;;;;4876411;29;20109;-89
2022/09/13 05:11:55;;;;;;;8.88;3.20;;;;;;;;;;4892193;29;20551;-89
2022/09/13 05:14:21;;;;;;;14.48;3.60;;;;;;;;;;4888580;29;20040;-89
2022/09/13 05:16:47;;;;;;;9.10;3.65;;;;;;;;;;4881133;29;20033;-89
2022/09/13 05:19:13;;;;;;;5.00;3.05;;;;;;;;;;4878103;29;20421;-89
2022/09/13 05:21:39;;;;;;;11.80;3.17;;;;;;;;;;4894949;29;20124;-90
2022/09/13 05:24:05;;;;;;;13.18;2.85;;;;;;;;;;4897780;29;20207;-91
2022/09/13 05:26:31;;;;;;;8.85;2.50;;;;;;;;;;4879965;29;20100;-90
2022/09/13 05:28:59;;;;;;;9.35;2.00;;;;;;;;;;4879446;29;20032;-89
2022/09/13 05:31:30;;;;;;;14.88;3.00;;;;;;;;;;4894303;29;20029;-90
2022/09/13 05:33:57;;;;;;;10.20;2.90;;;;;;;;;;4913226;29;20036;-89
2022/09/13 05:36:25;;;;;;;6.95;2.33;;;;;;;;;;4898049;29;20468;-90
2022/09/13 05:38:52;;;;;;;12.48;3.60;;;;;;;;;;4896321;29;20071;-90
2022/09/13 05:41:18;;;;;;;13.23;2.67;;;;;;;;;;4900424;29;20619;-88
2022/09/13 05:43:44;;;;;;;13.48;3.08;;;;;;;;;;4880901;29;20064;-89
2022/09/13 05:46:18;;;;;;;16.13;2.60;;;;;;;;;;4911829;29;20028;-89
2022/09/13 05:48:44;;;;;;;12.88;2.72;;;;;;;;;;4916101;28;20131;-89
2022/09/13 05:51:11;;;;;;;9.45;2.33;;;;;;;;;;4893312;29;20498;-89
2022/09/13 05:53:39;;;;;;;19.05;3.10;;;;;;;;;;4911101;29;20077;-89
2022/09/13 05:56:09;;;;;;;8.55;2.75;;;;;;;;;;4891721;29;20031;-90
2022/09/13 05:58:38;;;;;;;16.60;2.97;;;;;;;;;;4892215;29;20748;-89
2022/09/13 06:01:04;;;;;;;11.13;2.47;;;;;;;;;;4894934;29;20032;-89
2022/09/13 06:03:30;;;;;;;13.13;2.50;;;;;;;;;;4896490;29;20088;-89
2022/09/13 06:05:57;;;;;;;11.60;3.45;;;;;;;;;;4880690;29;20059;-89
2022/09/13 06:08:28;;;;;;;17.02;3.13;;;;;;;;;;4890491;29;20076;-88
2022/09/13 06:11:01;;;;;;;15.02;2.58;;;;;;;;;;4911295;29;20036;-88
2022/09/13 06:13:28;;;;;;;17.42;3.33;;;;;;;;;;4923108;29;20658;-88
2022/09/13 06:15:55;;;;;;;12.15;2.65;;;;;;;;;;4904225;29;20051;-88
2022/09/13 06:18:21;;;;;;;15.88;3.25;;;;;;;;;;4879109;29;20067;-87
2022/09/13 06:20:47;;;;;;;16.65;3.40;;;;;;;;;;4881183;29;20036;-88
2022/09/13 06:23:14;;;;;;;15.30;2.65;;;;;;;;;;4893384;29;20040;-88
2022/09/13 06:25:40;;;;;;;23.02;3.53;;;;;;;;;;4911977;29;20555;-88
2022/09/13 06:28:07;;;;;;;19.45;2.55;;;;;;;;;;4888751;29;20037;-88
2022/09/13 06:30:33;;;;;;;16.65;2.65;;;;;;;;;;4893694;29;20556;-88
2022/09/13 06:32:59;;;;;;;12.20;2.45;;;;;;;;;;4905707;29;20036;-89
2022/09/13 06:35:25;;;;;;;15.95;2.70;;;;;;;;;;4881865;29;20586;-89
2022/09/13 06:37:55;;;;;;;21.33;3.13;;;;;;;;;;4903271;29;20476;-89
2022/09/13 06:40:21;;;;;;;12.85;2.97;;;;;;;;;;4906707;29;20052;-89
2022/09/13 06:42:47;;;;;;;8.20;2.22;;;;;;;;;;4906907;29;20036;-89
2022/09/13 06:45:13;;;;;;;12.35;2.47;;;;;;;;;;4884165;29;20044;-89
2022/09/13 06:47:39;;;;;;;12.95;2.20;;;;;;;;;;4880623;28;20208;-89
2022/09/13 06:50:06;;;;;;;16.25;2.65;;;;;;;;;;4915134;29;20178;-89
2022/09/13 06:52:32;;;;;;;12.38;2.72;;;;;;;;;;4911191;29;20032;-88
2022/09/13 06:54:59;;;;;;;8.43;2.25;;;;;;;;;;4882559;29;20068;-89
2022/09/13 06:57:25;;;;;;;9.02;2.35;;;;;;;;;;4896950;29;20029;-89
2022/09/13 06:59:51;;;;;;;14.00;2.15;;;;;;;;;;4909629;29;20447;-88
2022/09/13 07:02:17;;;;;;;7.78;1.88;;;;;;;;;;4897866;29;20079;-89
2022/09/13 07:04:43;;;;;;;12.25;1.98;;;;;;;;;;4896423;29;20124;-89
2022/09/13 07:07:09;;;;;;;8.95;1.50;;;;;;;;;;4892301;29;20123;-89
2022/09/13 07:09:35;;;;;;;24.77;3.97;;;;;;;;;;4908145;29;20434;-89
2022/09/13 07:12:01;;;;;;;11.68;1.65;;;;;;;;;;4897244;29;20064;-89
2022/09/13 07:14:28;;;;;;;10.35;1.92;;;;;;;;;;4878861;29;20121;-89
2022/09/13 07:16:55;;;;;;;6.47;1.50;;;;;;;;;;4916898;29;20043;-89
2022/09/13 07:19:22;;;;;;;6.72;1.75;;;;;;;;;;4910109;29;20100;-89
2022/09/13 07:21:49;;;;;;;7.32;1.70;;;;;;;;;;4908968;29;20031;-88
2022/09/13 07:24:16;;;;;;;2.58;1.23;;;;;;;;;;4912073;29;20062;-89
2022/09/13 07:26:42;;;;;;;6.65;1.60;;;;;;;;;;4908025;29;20036;-89
2022/09/13 07:29:10;;;;;;;6.40;1.20;;;;;;;;;;4912827;29;20054;-89
2022/09/13 07:31:37;;;;;;;12.93;2.42;;;;;;;;;;4909996;29;20054;-89
2022/09/13 07:34:04;;;;;;;6.10;1.20;;;;;;;;;;4904671;29;20032;-89
2022/09/13 07:36:31;;;;;;;8.90;1.58;;;;;;;;;;4901032;29;20043;-89
2022/09/13 07:39:00;;;;;;;7.07;1.42;;;;;;;;;;4905592;29;20040;-88
2022/09/13 07:41:27;;;;;;;5.70;1.08;;;;;;;;;;4910049;29;20099;-88
2022/09/13 07:43:54;;;;;;;5.60;1.00;;;;;;;;;;4910935;29;20791;-89
2022/09/13 07:46:21;;;;;;;12.32;1.55;;;;;;;;;;4910371;29;20094;-88
2022/09/13 07:48:48;;;;;;;7.22;1.33;;;;;;;;;;4921958;28;20047;-88
2022/09/13 07:51:14;;;;;;;4.78;1.33;;;;;;;;;;4914129;29;20056;-88
2022/09/13 07:53:41;;;;;;;10.25;1.15;;;;;;;;;;4909190;29;20090;-88
2022/09/13 07:56:18;;;;;;;7.25;1.30;;;;;;;;;;4914611;29;20035;-89
2022/09/13 07:58:45;;;;;;;8.95;1.63;;;;;;;;;;4910835;29;20028;-88
2022/09/13 08:01:13;;;;;;;10.18;1.63;;;;;;;;;;4895894;29;20044;-88
2022/09/13 08:03:51;;;;;;;8.00;1.50;;;;;;;;;;4909102;29;20043;-88
2022/09/13 08:06:17;;;;;;;10.77;1.17;;;;;;;;;;4920918;29;20571;-88
2022/09/13 08:08:43;;;;;;;11.63;1.85;;;;;;;;;;4900623;29;20392;-88
2022/09/13 08:11:13;;;;;;;5.93;1.30;;;;;;;;;;4896749;29;20127;-88
2022/09/13 08:13:39;;;;;;;3.75;1.63;;;;;;;;;;4911168;29;20043;-88
2022/09/13 08:16:05;;;;;;;5.05;1.63;;;;;;;;;;4912396;29;20031;-88
2022/09/13 08:18:32;;;;;;;6.10;2.83;;;;;;;;;;4929184;29;20039;-88
2022/09/13 08:20:58;;;;;;;4.63;1.10;;;;;;;;;;4931444;29;20547;-88
2022/09/13 08:23:25;;;;;;;2.78;1.00;;;;;;;;;;4914252;29;20028;-88
2022/09/13 08:25:51;;;;;;;7.82;1.90;;;;;;;;;;4911600;29;20058;-88
2022/09/13 08:28:18;;;;;;;18.38;1.60;;;;;;;;;;4913943;29;20361;-88
2022/09/13 08:30:44;;;;;;;8.77;1.45;;;;;;;;;;4908454;29;20028;-88
2022/09/13 08:33:11;;;;;;;5.35;1.20;;;;;;;;;;4922392;29;20269;-88
2022/09/13 08:35:37;;;;;;;11.48;1.48;;;;;;;;;;4910681;29;20492;-88
2022/09/13 08:38:03;;;;;;;4.57;0.85;;;;;;;;;;4909084;29;20383;-88
2022/09/13 08:40:47;;;;;;;12.65;3.33;;;;;;;;;;4895708;29;20523;-88
2022/09/13 08:43:14;;;;;;;8.20;1.50;;;;;;;;;;4926342;29;20035;-88
2022/09/13 08:45:40;;;;;;;11.02;1.48;;;;;;;;;;4929340;29;20396;-89
2022/09/13 08:48:20;;;;;;;7.95;1.50;;;;;;;;;;4898116;28;20047;-88
2022/09/13 08:50:47;;;;;;;8.48;1.40;;;;;;;;;;4914179;29;20114;-88
2022/09/13 08:53:16;;;;;;;11.63;1.38;;;;;;;;;;4926618;29;20055;-88
2022/09/13 08:55:55;;;;;;;5.43;1.42;;;;;;;;;;4923671;29;20130;-89
2022/09/13 08:58:50;;;;;;;9.18;1.48;;;;;;;;;;4913023;29;20118;-88
2022/09/13 09:01:20;;;;;;;4.47;1.20;;;;;;;;;;4898504;29;20048;-88
2022/09/13 09:03:46;;;;;;;4.63;1.35;;;;;;;;;;4926158;29;20034;-87
2022/09/13 09:06:13;;;;;;;5.55;1.20;;;;;;;;;;4912534;29;20032;-88
2022/09/13 09:08:45;;;;;;;4.95;1.27;;;;;;;;;;4908145;29;20508;-87
2022/09/13 09:11:38;;;;;;;4.35;1.58;;;;;;;;;;4927091;29;20395;-88
2022/09/13 09:14:04;;;;;;;5.68;1.52;;;;;;;;;;4907358;29;20524;-87
2022/09/13 09:16:35;;;;;;;3.47;1.40;;;;;;;;;;4917436;29;20066;-87
2022/09/13 09:19:06;;;;;;;9.38;2.00;;;;;;;;;;4908257;29;20032;-88
2022/09/13 09:21:32;;;;;;;3.90;0.82;;;;;;;;;;4929546;29;20563;-88
2022/09/13 09:24:01;;;;;;;5.22;1.63;;;;;;;;;;4910720;29;20154;-87
2022/09/13 09:26:29;;;;;;;5.00;1.83;;;;;;;;;;4915161;29;20534;-88
2022/09/13 09:28:55;;;;;;;8.45;1.80;;;;;;;;;;4909755;29;20061;-88
2022/09/13 09:31:31;;;;;;;8.10;1.52;;;;;;;;;;4911139;29;20135;-88
2022/09/13 09:33:57;;;;;;;8.15;2.15;;;;;;;;;;4909441;29;20127;-86
2022/09/13 09:36:32;;;;;;;8.18;1.83;;;;;;;;;;4924464;29;20072;-87
2022/09/13 09:38:59;;;;;;;4.75;1.52;;;;;;;;;;4924873;29;20035;-88
2022/09/13 09:41:25;;;;;;;5.07;0.88;;;;;;;;;;4910449;29;20032;-88
2022/09/13 09:44:03;;;;;;;7.63;1.83;;;;;;;;;;4912397;29;20039;-88
2022/09/13 09:46:31;;;;;;;4.45;1.67;;;;;;;;;;4912274;29;20039;-87
2022/09/13 09:50:07;;;;;;;6.40;1.75;;;;;;;;;;4896858;28;20052;-88
2022/09/13 09:52:00;;;;;;;5.70;1.83;;;;;;;;;;4906149;29;20028;-88
2022/09/13 09:54:29;;;;;;;6.20;1.90;;;;;;;;;;4894974;29;20036;-87
2022/09/13 09:56:55;;;;;;;5.53;1.20;;;;;;;;;;4908063;29;20255;-87
2022/09/13 09:59:27;;;;;;;5.80;1.52;;;;;;;;;;4877953;29;20071;-87
2022/09/13 10:01:56;;;;;;;4.30;1.02;;;;;;;;;;4887017;29;20059;-88
2022/09/13 10:04:23;;;;;;;8.05;1.00;;;;;;;;;;4906267;29;20485;-87
2022/09/13 10:06:50;;;;;;;5.63;1.63;;;;;;;;;;4891598;29;20560;-87
2022/09/13 10:09:17;;;;;;;7.20;0.82;;;;;;;;;;4908389;29;20044;-87
2022/09/13 10:11:45;;;;;;;4.57;1.80;;;;;;;;;;4890664;29;20127;-88
2022/09/13 10:14:26;;;;;;;4.43;1.30;;;;;;;;;;4891414;29;20040;-88
2022/09/13 10:17:09;;;;;;;8.32;1.92;;;;;;;;;;4908060;29;20496;-88
2022/09/13 10:19:37;;;;;;;5.82;1.75;;;;;;;;;;4908833;29;20044;-88
2022/09/13 10:22:10;;;;;;;5.65;1.58;;;;;;;;;;4890153;29;20575;-87
2022/09/13 10:24:37;;;;;;;3.33;1.83;;;;;;;;;;4889397;29;20032;-88
2022/09/13 10:27:04;;;;;;;8.40;1.63;;;;;;;;;;4908747;29;20103;-88
2022/09/13 10:29:31;;;;;;;7.20;2.22;;;;;;;;;;4907858;29;20035;-88
2022/09/13 10:32:00;;;;;;;4.93;1.08;;;;;;;;;;4894353;29;20496;-87
2022/09/13 10:34:28;;;;;;;5.38;0.95;;;;;;;;;;4891732;29;20044;-87
2022/09/13 10:36:58;;;;;;;3.80;1.70;;;;;;;;;;4906959;29;20102;-88
2022/09/13 10:39:25;;;;;;;7.90;0.98;;;;;;;;;;4889632;29;20520;-88
2022/09/13 10:42:02;;;;;;;6.05;1.63;;;;;;;;;;4889648;29;20483;-87
2022/09/13 10:44:28;;;;;;;3.50;1.90;;;;;;;;;;4889753;29;20555;-88
2022/09/13 10:46:56;;;;;;;5.18;1.50;;;;;;;;;;4892385;29;20024;-87
2022/09/13 10:49:35;;;;;;;7.22;1.52;;;;;;;;;;4914114;28;20135;-87
2022/09/13 10:52:04;;;;;;;3.25;1.60;;;;;;;;;;4908415;29;20471;-88
2022/09/13 10:54:30;;;;;;;7.00;1.77;;;;;;;;;;4895020;29;20730;-88
2022/09/13 10:56:56;;;;;;;6.63;1.95;;;;;;;;;;4927098;29;20048;-87
2022/09/13 10:59:22;;;;;;;7.55;1.10;;;;;;;;;;4894083;29;20142;-88
2022/09/13 11:01:48;;;;;;;5.43;1.05;;;;;;;;;;4909650;29;20491;-87
2022/09/13 11:04:37;;;;;;;8.93;1.80;;;;;;;;;;4927837;29;20036;-88
2022/09/13 11:07:13;;;;;;;6.18;2.08;;;;;;;;;;4902444;29;20043;-88
2022/09/13 11:09:47;;;;;;;7.40;1.80;;;;;;;;;;4909519;29;20356;-88
2022/09/13 11:12:43;;;;;;;5.17;1.97;;;;;;;;;;4910900;29;20054;-87
2022/09/13 11:15:27;;;;;;;4.20;1.58;;;;;;;;;;4908755;29;20067;-87
2022/09/13 11:17:53;;;;;;;5.32;2.00;;;;;;;;;;4925441;29;20613;-87
2022/09/13 11:20:34;;;;;;;3.53;1.63;;;;;;;;;;4911992;29;20040;-87
2022/09/13 11:23:03;;;;;;;4.78;1.85;;;;;;;;;;4927140;29;20400;-88
2022/09/13 11:25:39;;;;;;;2.85;1.30;;;;;;;;;;4906381;29;20480;-88
2022/09/13 11:28:10;;;;;;;4.63;1.30;;;;;;;;;;4910293;29;20059;-88
2022/09/13 11:31:01;;;;;;;5.45;1.55;;;;;;;;;;4910301;29;20035;-88
2022/09/13 11:33:35;;;;;;;2.90;1.30;;;;;;;;;;4910249;29;20020;-88
2022/09/13 11:36:01;;;;;;;5.78;2.63;;;;;;;;;;4929367;29;20043;-87
2022/09/13 11:38:30;;;;;;;8.32;2.08;;;;;;;;;;4910230;29;20038;-87
2022/09/13 11:41:04;;;;;;;6.97;1.27;;;;;;;;;;4912903;29;20126;-87
2022/09/13 11:43:50;;;;;;;4.35;1.50;;;;;;;;;;4911705;29;20032;-86
2022/09/13 11:46:26;;;;;;;4.53;1.60;;;;;;;;;;4926352;29;20042;-87
2022/09/13 11:48:52;;;;;;;7.30;1.75;;;;;;;;;;4929432;28;20043;-88
2022/09/13 11:51:28;;;;;;;8.07;1.92;;;;;;;;;;4914302;29;20373;-88
2022/09/13 11:54:13;;;;;;;7.22;1.48;;;;;;;;;;4910801;29;20502;-87
2022/09/13 11:56:42;;;;;;;8.73;1.90;;;;;;;;;;4927239;29;20034;-88
2022/09/13 11:59:15;;;;;;;6.00;1.67;;;;;;;;;;4928670;29;20149;-88
2022/09/13 12:01:45;;;;;;;11.02;1.77;;;;;;;;;;4907709;29;20134;-87
2022/09/13 12:04:31;;;;;;;6.00;2.08;;;;;;;;;;4927125;29;20139;-87
2022/09/13 12:07:00;;;;;;;6.72;1.98;;;;;;;;;;4916603;29;20511;-87
2022/09/13 12:09:29;;;;;;;7.07;1.70;;;;;;;;;;4930594;29;20423;-88
2022/09/13 12:12:03;;;;;;;8.63;1.73;;;;;;;;;;4915426;29;20024;-87
2022/09/13 12:14:32;;;;;;;5.97;1.80;;;;;;;;;;4928419;29;20034;-88
2022/09/13 12:17:02;;;;;;;7.13;1.23;;;;;;;;;;4928765;29;20039;-88
2022/09/13 12:19:40;;;;;;;9.80;1.70;;;;;;;;;;4928237;29;20399;-88
2022/09/13 12:22:07;;;;;;;5.22;1.02;;;;;;;;;;4908085;29;20027;-88
2022/09/13 12:24:38;;;;;;;7.82;1.60;;;;;;;;;;4912693;29;20497;-88
2022/09/13 12:27:09;;;;;;;7.68;2.35;;;;;;;;;;4918371;29;20227;-88
2022/09/13 12:29:51;;;;;;;9.35;2.33;;;;;;;;;;4909530;29;20036;-88
2022/09/13 12:32:18;;;;;;;7.00;1.67;;;;;;;;;;4916059;29;20032;-87
2022/09/13 12:35:13;;;;;;;7.88;1.63;;;;;;;;;;4909816;29;20502;-88
2022/09/13 12:37:51;;;;;;;11.57;1.60;;;;;;;;;;4911778;29;20126;-88
2022/09/13 12:40:32;;;;;;;9.85;1.63;;;;;;;;;;4915290;29;20089;-88
2022/09/13 12:43:07;;;;;;;12.80;1.63;;;;;;;;;;4927851;29;20522;-88
2022/09/13 12:45:53;;;;;;;6.97;1.67;;;;;;;;;;4910614;29;20448;-88
2022/09/13 12:48:25;;;;;;;7.75;1.58;;;;;;;;;;4917715;28;20058;-87
2022/09/13 12:51:00;;;;;;;8.57;1.77;;;;;;;;;;4925242;28;20036;-88
2022/09/13 12:53:29;;;;;;;5.13;1.60;;;;;;;;;;4924541;29;20046;-88
2022/09/13 12:56:03;;;;;;;5.97;1.20;;;;;;;;;;4928448;29;20355;-88
2022/09/13 12:58:55;;;;;;;16.50;1.60;;;;;;;;;;4947953;28;20027;-88
2022/09/13 13:01:22;;;;;;;5.07;1.10;;;;;;;;;;4946602;28;20380;-88
2022/09/13 13:04:18;;;;;;;8.20;1.10;;;;;;;;;;4929669;29;20364;-87
2022/09/13 13:06:55;;;;;;;4.82;1.15;;;;;;;;;;4913402;29;20052;-87
2022/09/13 13:09:23;;;;;;;4.70;1.50;;;;;;;;;;4929999;29;20459;-88
2022/09/13 13:11:50;;;;;;;5.65;1.80;;;;;;;;;;4948845;29;20035;-87
2022/09/13 13:14:42;;;;;;;7.78;1.30;;;;;;;;;;4914936;29;20035;-88
2022/09/13 13:17:27;;;;;;;8.75;1.30;;;;;;;;;;4945719;28;20046;-87
2022/09/13 13:19:53;;;;;;;5.60;1.38;;;;;;;;;;4947705;28;20039;-88
2022/09/13 13:22:38;;;;;;;8.40;1.55;;;;;;;;;;4930850;29;20043;-88
2022/09/13 13:25:22;;;;;;;9.98;1.88;;;;;;;;;;4927989;29;20046;-87
2022/09/13 13:27:50;;;;;;;7.40;1.60;;;;;;;;;;4928810;29;20061;-87
2022/09/13 13:30:41;;;;;;;7.75;1.02;;;;;;;;;;4928500;28;20555;-88
2022/09/13 13:33:21;;;;;;;6.38;1.35;;;;;;;;;;4946916;28;20480;-88
2022/09/13 13:35:47;;;;;;;5.38;1.42;;;;;;;;;;4946754;28;20133;-88
2022/09/13 13:38:23;;;;;;;8.57;1.30;;;;;;;;;;4927686;29;20071;-87
2022/09/13 13:40:49;;;;;;;;;;;;;;;;;;4929321;29;20442;-88
2022/09/13 13:43:29;;;;;;;6.97;1.42;;;;;;;;;;4945395;28;20001;-88
2022/09/13 13:45:56;;;;;;;5.10;1.38;;;;;;;;;;4929096;29;20082;-87
2022/09/13 13:48:55;;;;;;;7.13;1.35;;;;;;;;;;4907404;28;20043;-88
2022/09/13 13:51:26;;;;;;;5.93;1.50;;;;;;;;;;4884302;29;20048;-87
2022/09/13 13:53:58;;;;;;;3.15;1.20;;;;;;;;;;4907000;29;20143;-87
2022/09/13 13:56:30;;;;;;;8.57;1.60;;;;;;;;;;4890537;29;20400;-87
2022/09/13 13:59:05;;;;;;;6.25;1.50;;;;;;;;;;4886756;29;20502;-87
2022/09/13 14:01:33;;;;;;;4.82;1.42;;;;;;;;;;4907496;29;20028;-87
2022/09/13 14:03:59;;;;;;;12.27;1.60;;;;;;;;;;4889116;29;20481;-87
2022/09/13 14:06:32;;;;;;;4.47;1.02;;;;;;;;;;4897110;29;20027;-88
2022/09/13 14:09:05;;;;;;;4.45;1.40;;;;;;;;;;4904808;29;20505;-87
2022/09/13 14:11:32;;;;;;;5.78;1.20;;;;;;;;;;4892507;29;20028;-88
2022/09/13 14:14:16;;;;;;;7.43;1.60;;;;;;;;;;4909336;29;20073;-88
2022/09/13 14:17:01;;;;;;;7.93;1.40;;;;;;;;;;4891667;29;20400;-88
2022/09/13 14:19:30;;;;;;;9.07;1.27;;;;;;;;;;4894778;29;20642;-87
2022/09/13 14:22:15;;;;;;;8.73;1.42;;;;;;;;;;4894894;29;20028;-88
2022/09/13 14:24:45;;;;;;;6.88;1.30;;;;;;;;;;4888636;29;20392;-88
2022/09/13 14:27:20;;;;;;;5.68;1.30;;;;;;;;;;4907571;29;20028;-88
2022/09/13 14:29:46;;;;;;;;;;;;;;;;;;4886947;29;20135;-88
2022/09/13 14:32:12;;;;;;;;;;;;;;;;;;4894243;29;20013;-88
2022/09/13 14:34:38;;;;;;;5.82;1.50;;;;;;;;;;4906969;29;20271;-88
2022/09/13 14:37:06;;;;;;;9.35;1.52;;;;;;;;;;4906035;29;20020;-88
2022/09/13 14:39:32;;;;;;;5.80;1.40;;;;;;;;;;4889598;29;20500;-88
2022/09/13 14:41:59;;;;;;;6.05;1.42;;;;;;;;;;4886704;29;20047;-88
2022/09/13 14:44:26;;;;;;;3.28;0.75;;;;;;;;;;4891731;29;20540;-88
2022/09/13 14:47:02;;;;;;;4.63;1.17;;;;;;;;;;4909282;29;20056;-88
2022/09/13 14:49:34;;;;;;;6.40;0.95;;;;;;;;;;4931453;28;20047;-88
2022/09/13 14:52:08;;;;;;;7.28;1.23;;;;;;;;;;4942747;28;20109;-88
2022/09/13 14:54:39;;;;;;;3.83;1.05;;;;;;;;;;4927909;29;20042;-87
2022/09/13 14:57:07;;;;;;;4.85;0.82;;;;;;;;;;4941218;28;20365;-87